sensor_id;sensor_type;location;lat;lon;timestamp;P1;durP1;ratioP1;P2;durP2;ratioP2
33094;SDS011;19459;53.044;8.910;2024-03-23T00:54:21;41.08;;;8.02;;
33094;SDS011;19459;53.044;8.910;2024-03-23T00:56:47;43.53;;;6.97;;
33094;SDS011;19459;53.044;8.910;2024-03-23T00:59:13;32.70;;;6.45;;
33094;SDS011;19459;53.044;8.910;2024-03-23T01:01:39;36.83;;;8.50;;
33094;SDS011;19459;53.044;8.910;2024-03-23T01:04:05;34.40;;;7.55;;
33094;SDS011;19459;53.044;8.910;2024-03-23T01:06:31;36.00;;;7.18;;
33094;SDS011;19459;53.044;8.910;2024-03-23T01:08:56;49.70;;;9.65;;
33094;SDS011;19459;53.044;8.910;2024-03-23T01:11:22;35.85;;;6.70;;
33094;SDS011;19459;53.044;8.910;2024-03-23T01:13:48;33.78;;;6.70;;
33094;SDS011;19459;53.044;8.910;2024-03-23T01:16:14;34.28;;;6.00;;
33094;SDS011;19459;53.044;8.910;2024-03-23T01:18:40;35.95;;;6.85;;
33094;SDS011;19459;53.044;8.910;2024-03-23T01:21:05;42.35;;;7.25;;
33094;SDS011;19459;53.044;8.910;2024-03-23T01:23:31;34.25;;;6.90;;
33094;SDS011;19459;53.044;8.910;2024-03-23T01:25:57;30.13;;;7.28;;
33094;SDS011;19459;53.044;8.910;2024-03-23T01:28:23;51.42;;;7.63;;
33094;SDS011;19459;53.044;8.910;2024-03-23T01:30:49;31.00;;;7.63;;
33094;SDS011;19459;53.044;8.910;2024-03-23T01:33:15;32.40;;;7.35;;
33094;SDS011;19459;53.044;8.910;2024-03-23T01:35:41;40.13;;;7.03;;
33094;SDS011;19459;53.044;8.910;2024-03-23T01:38:06;40.80;;;8.50;;
33094;SDS011;19459;53.044;8.910;2024-03-23T01:40:32;42.60;;;6.90;;
33094;SDS011;19459;53.044;8.910;2024-03-23T01:43:03;35.28;;;7.95;;
33094;SDS011;19459;53.044;8.910;2024-03-23T01:45:30;35.83;;;7.57;;
33094;SDS011;19459;53.044;8.910;2024-03-23T01:47:57;28.75;;;6.82;;
33094;SDS011;19459;53.044;8.910;2024-03-23T01:50:23;33.33;;;7.57;;
33094;SDS011;19459;53.044;8.910;2024-03-23T01:52:50;29.45;;;5.75;;
33094;SDS011;19459;53.044;8.910;2024-03-23T01:55:16;38.30;;;6.78;;
33094;SDS011;19459;53.044;8.910;2024-03-23T01:57:42;37.60;;;6.55;;
33094;SDS011;19459;53.044;8.910;2024-03-23T02:00:08;32.38;;;5.57;;
33094;SDS011;19459;53.044;8.910;2024-03-23T02:02:40;35.05;;;5.93;;
33094;SDS011;19459;53.044;8.910;2024-03-23T02:05:12;32.75;;;5.75;;
33094;SDS011;19459;53.044;8.910;2024-03-23T02:07:39;34.03;;;6.43;;
33094;SDS011;19459;53.044;8.910;2024-03-23T02:10:07;31.73;;;6.60;;
33094;SDS011;19459;53.044;8.910;2024-03-23T02:12:53;45.08;;;6.88;;
33094;SDS011;19459;53.044;8.910;2024-03-23T02:15:19;30.48;;;7.47;;
33094;SDS011;19459;53.044;8.910;2024-03-23T02:17:44;27.42;;;5.65;;
33094;SDS011;19459;53.044;8.910;2024-03-23T02:20:11;38.83;;;7.82;;
33094;SDS011;19459;53.044;8.910;2024-03-23T02:22:37;40.72;;;6.63;;
33094;SDS011;19459;53.044;8.910;2024-03-23T02:25:04;41.03;;;7.70;;
33094;SDS011;19459;53.044;8.910;2024-03-23T02:27:31;33.65;;;6.43;;
33094;SDS011;19459;53.044;8.910;2024-03-23T02:29:58;35.85;;;6.22;;
33094;SDS011;19459;53.044;8.910;2024-03-23T02:32:23;32.63;;;8.43;;
33094;SDS011;19459;53.044;8.910;2024-03-23T02:34:49;33.17;;;6.63;;
33094;SDS011;19459;53.044;8.910;2024-03-23T02:37:15;38.40;;;6.63;;
33094;SDS011;19459;53.044;8.910;2024-03-23T02:39:41;33.58;;;6.65;;
33094;SDS011;19459;53.044;8.910;2024-03-23T02:42:07;35.58;;;7.05;;
33094;SDS011;19459;53.044;8.910;2024-03-23T02:44:32;38.78;;;6.85;;
33094;SDS011;19459;53.044;8.910;2024-03-23T02:46:58;31.60;;;7.78;;
33094;SDS011;19459;53.044;8.910;2024-03-23T02:49:25;32.35;;;7.03;;
33094;SDS011;19459;53.044;8.910;2024-03-23T02:51:51;32.40;;;6.32;;
33094;SDS011;19459;53.044;8.910;2024-03-23T02:54:17;38.13;;;7.43;;
33094;SDS011;19459;53.044;8.910;2024-03-23T02:56:43;30.48;;;8.00;;
33094;SDS011;19459;53.044;8.910;2024-03-23T02:59:09;38.95;;;6.15;;
33094;SDS011;19459;53.044;8.910;2024-03-23T03:01:35;42.33;;;6.93;;
33094;SDS011;19459;53.044;8.910;2024-03-23T03:04:01;44.83;;;8.85;;
33094;SDS011;19459;53.044;8.910;2024-03-23T03:06:26;42.97;;;7.43;;
33094;SDS011;19459;53.044;8.910;2024-03-23T03:08:52;43.30;;;7.05;;
33094;SDS011;19459;53.044;8.910;2024-03-23T03:11:19;37.05;;;7.30;;
33094;SDS011;19459;53.044;8.910;2024-03-23T03:13:45;39.53;;;7.68;;
33094;SDS011;19459;53.044;8.910;2024-03-23T03:16:11;46.78;;;8.90;;
33094;SDS011;19459;53.044;8.910;2024-03-23T03:18:37;36.80;;;7.57;;
33094;SDS011;19459;53.044;8.910;2024-03-23T03:21:05;32.35;;;6.28;;
33094;SDS011;19459;53.044;8.910;2024-03-23T03:23:35;40.05;;;6.70;;
33094;SDS011;19459;53.044;8.910;2024-03-23T03:26:02;37.65;;;6.00;;
33094;SDS011;19459;53.044;8.910;2024-03-23T03:28:29;39.25;;;8.63;;
33094;SDS011;19459;53.044;8.910;2024-03-23T03:30:57;37.22;;;8.27;;
33094;SDS011;19459;53.044;8.910;2024-03-23T03:33:24;38.35;;;7.90;;
33094;SDS011;19459;53.044;8.910;2024-03-23T03:35:52;39.67;;;7.55;;
33094;SDS011;19459;53.044;8.910;2024-03-23T03:38:18;31.60;;;7.80;;
33094;SDS011;19459;53.044;8.910;2024-03-23T03:40:44;30.80;;;6.90;;
33094;SDS011;19459;53.044;8.910;2024-03-23T03:43:10;35.75;;;7.03;;
33094;SDS011;19459;53.044;8.910;2024-03-23T03:45:36;32.80;;;8.13;;
33094;SDS011;19459;53.044;8.910;2024-03-23T03:48:02;32.92;;;6.90;;
33094;SDS011;19459;53.044;8.910;2024-03-23T03:50:28;32.90;;;5.97;;
33094;SDS011;19459;53.044;8.910;2024-03-23T03:52:53;31.45;;;6.38;;
33094;SDS011;19459;53.044;8.910;2024-03-23T03:55:19;40.97;;;6.93;;
33094;SDS011;19459;53.044;8.910;2024-03-23T03:57:45;41.75;;;7.78;;
33094;SDS011;19459;53.044;8.910;2024-03-23T04:00:11;49.70;;;7.28;;
33094;SDS011;19459;53.044;8.910;2024-03-23T04:02:37;28.67;;;6.45;;
33094;SDS011;19459;53.044;8.910;2024-03-23T04:05:04;27.00;;;6.50;;
33094;SDS011;19459;53.044;8.910;2024-03-23T04:07:30;32.53;;;8.05;;
33094;SDS011;19459;53.044;8.910;2024-03-23T04:09:56;22.55;;;7.15;;
33094;SDS011;19459;53.044;8.910;2024-03-23T04:12:23;35.17;;;8.98;;
33094;SDS011;19459;53.044;8.910;2024-03-23T04:14:49;38.78;;;7.47;;
33094;SDS011;19459;53.044;8.910;2024-03-23T04:17:14;28.30;;;6.53;;
33094;SDS011;19459;53.044;8.910;2024-03-23T04:19:41;29.35;;;7.57;;
33094;SDS011;19459;53.044;8.910;2024-03-23T04:22:07;40.80;;;6.22;;
33094;SDS011;19459;53.044;8.910;2024-03-23T04:24:33;32.00;;;6.10;;
33094;SDS011;19459;53.044;8.910;2024-03-23T04:26:59;37.05;;;7.97;;
33094;SDS011;19459;53.044;8.910;2024-03-23T04:29:24;37.33;;;7.80;;
33094;SDS011;19459;53.044;8.910;2024-03-23T04:31:51;43.88;;;9.77;;
33094;SDS011;19459;53.044;8.910;2024-03-23T04:34:17;32.67;;;7.10;;
33094;SDS011;19459;53.044;8.910;2024-03-23T04:36:43;35.35;;;7.25;;
33094;SDS011;19459;53.044;8.910;2024-03-23T04:39:09;32.00;;;6.78;;
33094;SDS011;19459;53.044;8.910;2024-03-23T04:41:35;40.10;;;8.50;;
33094;SDS011;19459;53.044;8.910;2024-03-23T04:44:01;41.75;;;7.85;;
33094;SDS011;19459;53.044;8.910;2024-03-23T04:46:27;44.15;;;7.70;;
33094;SDS011;19459;53.044;8.910;2024-03-23T04:48:52;38.60;;;7.30;;
33094;SDS011;19459;53.044;8.910;2024-03-23T04:51:22;38.95;;;7.35;;
33094;SDS011;19459;53.044;8.910;2024-03-23T04:53:48;26.65;;;5.93;;
33094;SDS011;19459;53.044;8.910;2024-03-23T04:56:15;29.23;;;7.13;;
33094;SDS011;19459;53.044;8.910;2024-03-23T04:58:42;29.65;;;6.50;;
33094;SDS011;19459;53.044;8.910;2024-03-23T05:01:08;28.50;;;6.45;;
33094;SDS011;19459;53.044;8.910;2024-03-23T05:03:35;37.13;;;7.80;;
33094;SDS011;19459;53.044;8.910;2024-03-23T05:06:01;34.00;;;7.38;;
33094;SDS011;19459;53.044;8.910;2024-03-23T05:08:27;41.33;;;7.53;;
33094;SDS011;19459;53.044;8.910;2024-03-23T05:10:53;33.15;;;6.80;;
33094;SDS011;19459;53.044;8.910;2024-03-23T05:13:19;32.00;;;5.90;;
33094;SDS011;19459;53.044;8.910;2024-03-23T05:15:50;37.30;;;9.35;;
33094;SDS011;19459;53.044;8.910;2024-03-23T05:18:20;28.92;;;7.47;;
33094;SDS011;19459;53.044;8.910;2024-03-23T05:20:46;42.83;;;8.18;;
33094;SDS011;19459;53.044;8.910;2024-03-23T05:23:12;23.95;;;6.70;;
33094;SDS011;19459;53.044;8.910;2024-03-23T05:25:38;32.80;;;8.27;;
33094;SDS011;19459;53.044;8.910;2024-03-23T05:28:04;41.58;;;8.20;;
33094;SDS011;19459;53.044;8.910;2024-03-23T05:30:30;33.80;;;6.93;;
33094;SDS011;19459;53.044;8.910;2024-03-23T05:32:56;42.33;;;7.85;;
33094;SDS011;19459;53.044;8.910;2024-03-23T05:35:22;30.45;;;6.88;;
33094;SDS011;19459;53.044;8.910;2024-03-23T05:37:48;37.97;;;6.95;;
33094;SDS011;19459;53.044;8.910;2024-03-23T05:40:13;29.08;;;6.50;;
33094;SDS011;19459;53.044;8.910;2024-03-23T05:42:40;27.90;;;6.15;;
33094;SDS011;19459;53.044;8.910;2024-03-23T05:45:06;40.17;;;8.82;;
33094;SDS011;19459;53.044;8.910;2024-03-23T05:47:33;31.23;;;6.65;;
33094;SDS011;19459;53.044;8.910;2024-03-23T05:49:59;30.23;;;6.93;;
33094;SDS011;19459;53.044;8.910;2024-03-23T05:52:24;29.90;;;7.50;;
33094;SDS011;19459;53.044;8.910;2024-03-23T05:54:52;40.70;;;7.55;;
33094;SDS011;19459;53.044;8.910;2024-03-23T05:57:18;22.85;;;5.90;;
33094;SDS011;19459;53.044;8.910;2024-03-23T05:59:44;36.97;;;8.38;;
33094;SDS011;19459;53.044;8.910;2024-03-23T06:02:10;24.60;;;6.63;;
33094;SDS011;19459;53.044;8.910;2024-03-23T06:04:36;38.80;;;7.60;;
33094;SDS011;19459;53.044;8.910;2024-03-23T06:07:02;33.20;;;6.80;;
33094;SDS011;19459;53.044;8.910;2024-03-23T06:09:31;33.83;;;7.57;;
33094;SDS011;19459;53.044;8.910;2024-03-23T06:11:57;40.28;;;8.85;;
33094;SDS011;19459;53.044;8.910;2024-03-23T06:14:22;29.90;;;6.57;;
33094;SDS011;19459;53.044;8.910;2024-03-23T06:16:48;42.83;;;6.93;;
33094;SDS011;19459;53.044;8.910;2024-03-23T06:19:14;26.92;;;6.32;;
33094;SDS011;19459;53.044;8.910;2024-03-23T06:21:44;35.28;;;7.72;;
33094;SDS011;19459;53.044;8.910;2024-03-23T06:24:10;32.80;;;6.68;;
33094;SDS011;19459;53.044;8.910;2024-03-23T06:26:37;32.40;;;7.28;;
33094;SDS011;19459;53.044;8.910;2024-03-23T06:29:03;29.85;;;5.60;;
33094;SDS011;19459;53.044;8.910;2024-03-23T06:31:30;37.00;;;7.45;;
33094;SDS011;19459;53.044;8.910;2024-03-23T06:33:56;40.72;;;8.25;;
33094;SDS011;19459;53.044;8.910;2024-03-23T06:36:22;31.02;;;7.95;;
33094;SDS011;19459;53.044;8.910;2024-03-23T06:38:48;33.35;;;6.75;;
33094;SDS011;19459;53.044;8.910;2024-03-23T06:41:14;25.50;;;7.40;;
33094;SDS011;19459;53.044;8.910;2024-03-23T06:43:40;27.50;;;7.40;;
33094;SDS011;19459;53.044;8.910;2024-03-23T06:46:08;38.92;;;7.63;;
33094;SDS011;19459;53.044;8.910;2024-03-23T06:48:34;34.03;;;7.55;;
33094;SDS011;19459;53.044;8.910;2024-03-23T06:51:00;39.80;;;7.75;;
33094;SDS011;19459;53.044;8.910;2024-03-23T06:53:25;36.42;;;6.68;;
33094;SDS011;19459;53.044;8.910;2024-03-23T06:55:52;32.53;;;7.82;;
33094;SDS011;19459;53.044;8.910;2024-03-23T06:58:22;34.15;;;7.38;;
33094;SDS011;19459;53.044;8.910;2024-03-23T07:00:50;26.75;;;8.70;;
33094;SDS011;19459;53.044;8.910;2024-03-23T07:03:16;26.42;;;7.30;;
33094;SDS011;19459;53.044;8.910;2024-03-23T07:05:45;28.05;;;6.60;;
33094;SDS011;19459;53.044;8.910;2024-03-23T07:08:11;31.38;;;7.47;;
33094;SDS011;19459;53.044;8.910;2024-03-23T07:10:40;33.47;;;8.18;;
33094;SDS011;19459;53.044;8.910;2024-03-23T07:13:06;33.33;;;7.18;;
33094;SDS011;19459;53.044;8.910;2024-03-23T07:15:32;31.27;;;7.28;;
33094;SDS011;19459;53.044;8.910;2024-03-23T07:17:58;33.42;;;7.65;;
33094;SDS011;19459;53.044;8.910;2024-03-23T07:20:24;29.25;;;9.13;;
33094;SDS011;19459;53.044;8.910;2024-03-23T07:22:50;45.05;;;9.25;;
33094;SDS011;19459;53.044;8.910;2024-03-23T07:25:17;27.98;;;7.82;;
33094;SDS011;19459;53.044;8.910;2024-03-23T07:27:42;33.38;;;10.25;;
33094;SDS011;19459;53.044;8.910;2024-03-23T07:30:08;29.00;;;8.48;;
33094;SDS011;19459;53.044;8.910;2024-03-23T07:32:35;29.35;;;9.15;;
33094;SDS011;19459;53.044;8.910;2024-03-23T07:35:01;32.00;;;6.72;;
33094;SDS011;19459;53.044;8.910;2024-03-23T07:37:27;32.03;;;7.85;;
33094;SDS011;19459;53.044;8.910;2024-03-23T07:39:53;39.47;;;7.47;;
33094;SDS011;19459;53.044;8.910;2024-03-23T07:42:19;32.28;;;7.78;;
33094;SDS011;19459;53.044;8.910;2024-03-23T07:44:44;33.53;;;6.60;;
33094;SDS011;19459;53.044;8.910;2024-03-23T07:47:11;33.20;;;6.70;;
33094;SDS011;19459;53.044;8.910;2024-03-23T07:49:37;25.48;;;6.85;;
33094;SDS011;19459;53.044;8.910;2024-03-23T07:52:04;27.92;;;6.97;;
33094;SDS011;19459;53.044;8.910;2024-03-23T07:54:30;31.00;;;5.97;;
33094;SDS011;19459;53.044;8.910;2024-03-23T07:56:56;33.60;;;7.35;;
33094;SDS011;19459;53.044;8.910;2024-03-23T07:59:22;24.13;;;5.65;;
33094;SDS011;19459;53.044;8.910;2024-03-23T08:01:48;25.75;;;5.50;;
33094;SDS011;19459;53.044;8.910;2024-03-23T08:04:14;24.63;;;6.00;;
33094;SDS011;19459;53.044;8.910;2024-03-23T08:06:40;22.58;;;6.85;;
33094;SDS011;19459;53.044;8.910;2024-03-23T08:09:06;30.90;;;6.72;;
33094;SDS011;19459;53.044;8.910;2024-03-23T08:11:32;25.77;;;5.97;;
33094;SDS011;19459;53.044;8.910;2024-03-23T08:14:01;22.13;;;5.75;;
33094;SDS011;19459;53.044;8.910;2024-03-23T08:16:26;27.95;;;6.00;;
33094;SDS011;19459;53.044;8.910;2024-03-23T08:18:53;31.20;;;7.25;;
33094;SDS011;19459;53.044;8.910;2024-03-23T08:21:21;17.20;;;5.30;;
33094;SDS011;19459;53.044;8.910;2024-03-23T08:23:47;19.15;;;5.15;;
33094;SDS011;19459;53.044;8.910;2024-03-23T08:26:15;20.77;;;6.03;;
33094;SDS011;19459;53.044;8.910;2024-03-23T08:28:42;24.33;;;6.20;;
33094;SDS011;19459;53.044;8.910;2024-03-23T08:31:09;23.52;;;5.93;;
33094;SDS011;19459;53.044;8.910;2024-03-23T08:33:36;20.05;;;5.38;;
33094;SDS011;19459;53.044;8.910;2024-03-23T08:36:05;26.27;;;4.82;;
33094;SDS011;19459;53.044;8.910;2024-03-23T08:38:33;25.10;;;4.95;;
33094;SDS011;19459;53.044;8.910;2024-03-23T08:41:00;29.45;;;5.43;;
33094;SDS011;19459;53.044;8.910;2024-03-23T08:43:33;24.77;;;4.97;;
33094;SDS011;19459;53.044;8.910;2024-03-23T08:46:08;26.27;;;4.22;;
33094;SDS011;19459;53.044;8.910;2024-03-23T08:48:37;21.08;;;5.18;;
33094;SDS011;19459;53.044;8.910;2024-03-23T08:51:11;25.98;;;6.30;;
33094;SDS011;19459;53.044;8.910;2024-03-23T08:53:38;18.70;;;4.03;;
33094;SDS011;19459;53.044;8.910;2024-03-23T08:56:05;14.57;;;4.03;;
33094;SDS011;19459;53.044;8.910;2024-03-23T08:58:33;23.75;;;4.60;;
33094;SDS011;19459;53.044;8.910;2024-03-23T09:01:04;22.17;;;4.38;;
33094;SDS011;19459;53.044;8.910;2024-03-23T09:06:01;22.45;;;3.97;;
33094;SDS011;19459;53.044;8.910;2024-03-23T09:08:36;13.60;;;3.45;;
33094;SDS011;19459;53.044;8.910;2024-03-23T09:11:08;21.63;;;4.13;;
33094;SDS011;19459;53.044;8.910;2024-03-23T09:13:36;20.15;;;3.90;;
33094;SDS011;19459;53.044;8.910;2024-03-23T09:16:03;19.58;;;4.40;;
33094;SDS011;19459;53.044;8.910;2024-03-23T09:18:31;13.75;;;3.15;;
33094;SDS011;19459;53.044;8.910;2024-03-23T09:20:58;13.10;;;3.22;;
33094;SDS011;19459;53.044;8.910;2024-03-23T09:23:24;17.88;;;3.13;;
33094;SDS011;19459;53.044;8.910;2024-03-23T09:25:50;12.68;;;3.17;;
33094;SDS011;19459;53.044;8.910;2024-03-23T09:28:16;13.98;;;3.03;;
33094;SDS011;19459;53.044;8.910;2024-03-23T09:30:42;19.15;;;3.45;;
33094;SDS011;19459;53.044;8.910;2024-03-23T09:33:16;11.32;;;3.65;;
33094;SDS011;19459;53.044;8.910;2024-03-23T09:35:43;12.55;;;2.95;;
33094;SDS011;19459;53.044;8.910;2024-03-23T09:38:12;11.45;;;2.72;;
33094;SDS011;19459;53.044;8.910;2024-03-23T09:40:41;9.98;;;2.25;;
33094;SDS011;19459;53.044;8.910;2024-03-23T09:43:08;9.63;;;2.88;;
33094;SDS011;19459;53.044;8.910;2024-03-23T09:45:36;20.55;;;3.50;;
33094;SDS011;19459;53.044;8.910;2024-03-23T09:48:06;25.17;;;3.58;;
33094;SDS011;19459;53.044;8.910;2024-03-23T09:50:36;14.35;;;2.90;;
33094;SDS011;19459;53.044;8.910;2024-03-23T09:53:10;9.48;;;2.40;;
33094;SDS011;19459;53.044;8.910;2024-03-23T09:55:38;7.60;;;2.92;;
33094;SDS011;19459;53.044;8.910;2024-03-23T09:58:06;14.93;;;3.45;;
33094;SDS011;19459;53.044;8.910;2024-03-23T10:00:32;12.70;;;3.97;;
33094;SDS011;19459;53.044;8.910;2024-03-23T10:02:59;16.83;;;3.58;;
33094;SDS011;19459;53.044;8.910;2024-03-23T10:05:31;13.20;;;3.30;;
33094;SDS011;19459;53.044;8.910;2024-03-23T10:10:39;10.43;;;2.85;;
33094;SDS011;19459;53.044;8.910;2024-03-23T10:13:11;8.10;;;2.53;;
33094;SDS011;19459;53.044;8.910;2024-03-23T10:15:50;8.90;;;2.40;;
33094;SDS011;19459;53.044;8.910;2024-03-23T10:18:24;5.32;;;2.10;;
33094;SDS011;19459;53.044;8.910;2024-03-23T10:20:52;6.43;;;3.05;;
33094;SDS011;19459;53.044;8.910;2024-03-23T10:23:30;9.15;;;2.47;;
33094;SDS011;19459;53.044;8.910;2024-03-23T10:26:12;11.80;;;2.10;;
33094;SDS011;19459;53.044;8.910;2024-03-23T10:28:53;15.95;;;2.95;;
33094;SDS011;19459;53.044;8.910;2024-03-23T10:31:36;8.07;;;2.72;;
33094;SDS011;19459;53.044;8.910;2024-03-23T10:34:06;11.32;;;3.05;;
33094;SDS011;19459;53.044;8.910;2024-03-23T10:36:32;10.82;;;2.65;;
33094;SDS011;19459;53.044;8.910;2024-03-23T10:39:00;11.88;;;3.20;;
33094;SDS011;19459;53.044;8.910;2024-03-23T10:41:27;9.02;;;3.20;;
33094;SDS011;19459;53.044;8.910;2024-03-23T10:43:54;9.38;;;3.03;;
33094;SDS011;19459;53.044;8.910;2024-03-23T10:46:22;8.63;;;2.42;;
33094;SDS011;19459;53.044;8.910;2024-03-23T10:48:48;10.25;;;2.58;;
33094;SDS011;19459;53.044;8.910;2024-03-23T10:51:14;12.55;;;3.13;;
33094;SDS011;19459;53.044;8.910;2024-03-23T10:53:40;8.73;;;2.83;;
33094;SDS011;19459;53.044;8.910;2024-03-23T10:56:07;16.25;;;3.65;;
33094;SDS011;19459;53.044;8.910;2024-03-23T10:58:44;11.73;;;2.30;;
33094;SDS011;19459;53.044;8.910;2024-03-23T11:01:15;12.38;;;2.67;;
33094;SDS011;19459;53.044;8.910;2024-03-23T11:03:46;9.00;;;3.00;;
33094;SDS011;19459;53.044;8.910;2024-03-23T11:06:33;9.60;;;2.53;;
33094;SDS011;19459;53.044;8.910;2024-03-23T11:09:01;9.55;;;2.42;;
33094;SDS011;19459;53.044;8.910;2024-03-23T11:11:27;13.77;;;2.97;;
33094;SDS011;19459;53.044;8.910;2024-03-23T11:13:56;10.73;;;3.78;;
33094;SDS011;19459;53.044;8.910;2024-03-23T11:16:23;12.90;;;3.63;;
33094;SDS011;19459;53.044;8.910;2024-03-23T11:22:03;10.00;;;2.88;;
33094;SDS011;19459;53.044;8.910;2024-03-23T11:24:30;9.00;;;3.22;;
33094;SDS011;19459;53.044;8.910;2024-03-23T11:26:56;13.57;;;2.88;;
33094;SDS011;19459;53.044;8.910;2024-03-23T11:29:29;6.80;;;2.33;;
33094;SDS011;19459;53.044;8.910;2024-03-23T11:31:55;11.07;;;3.05;;
33094;SDS011;19459;53.044;8.910;2024-03-23T11:34:21;7.30;;;1.90;;
33094;SDS011;19459;53.044;8.910;2024-03-23T11:36:47;8.25;;;2.75;;
33094;SDS011;19459;53.044;8.910;2024-03-23T11:39:16;8.95;;;2.17;;
33094;SDS011;19459;53.044;8.910;2024-03-23T11:41:47;4.95;;;1.83;;
33094;SDS011;19459;53.044;8.910;2024-03-23T11:44:19;8.23;;;2.13;;
33094;SDS011;19459;53.044;8.910;2024-03-23T11:46:50;9.35;;;2.25;;
33094;SDS011;19459;53.044;8.910;2024-03-23T11:49:24;9.32;;;2.35;;
33094;SDS011;19459;53.044;8.910;2024-03-23T11:54:20;13.30;;;2.22;;
33094;SDS011;19459;53.044;8.910;2024-03-23T11:56:54;4.22;;;1.80;;
33094;SDS011;19459;53.044;8.910;2024-03-23T11:59:36;6.43;;;2.47;;
33094;SDS011;19459;53.044;8.910;2024-03-23T12:02:10;11.95;;;2.20;;
33094;SDS011;19459;53.044;8.910;2024-03-23T12:04:39;5.13;;;2.35;;
33094;SDS011;19459;53.044;8.910;2024-03-23T12:07:16;8.32;;;2.15;;
33094;SDS011;19459;53.044;8.910;2024-03-23T12:10:13;9.70;;;2.25;;
33094;SDS011;19459;53.044;8.910;2024-03-23T12:12:39;8.75;;;2.30;;
33094;SDS011;19459;53.044;8.910;2024-03-23T12:15:06;8.13;;;2.47;;
33094;SDS011;19459;53.044;8.910;2024-03-23T12:17:33;13.63;;;2.83;;
33094;SDS011;19459;53.044;8.910;2024-03-23T12:20:00;10.93;;;3.05;;
33094;SDS011;19459;53.044;8.910;2024-03-23T12:22:27;8.68;;;2.42;;
33094;SDS011;19459;53.044;8.910;2024-03-23T12:24:54;7.35;;;1.70;;
33094;SDS011;19459;53.044;8.910;2024-03-23T12:27:20;8.35;;;2.10;;
33094;SDS011;19459;53.044;8.910;2024-03-23T12:29:51;6.00;;;1.63;;
33094;SDS011;19459;53.044;8.910;2024-03-23T12:32:17;8.80;;;1.77;;
33094;SDS011;19459;53.044;8.910;2024-03-23T12:34:43;5.78;;;2.88;;
33094;SDS011;19459;53.044;8.910;2024-03-23T12:37:09;12.93;;;5.45;;
33094;SDS011;19459;53.044;8.910;2024-03-23T12:39:35;31.50;;;12.65;;
33094;SDS011;19459;53.044;8.910;2024-03-23T12:42:01;22.25;;;11.00;;
33094;SDS011;19459;53.044;8.910;2024-03-23T12:44:28;14.40;;;7.03;;
33094;SDS011;19459;53.044;8.910;2024-03-23T12:46:54;16.50;;;8.23;;
33094;SDS011;19459;53.044;8.910;2024-03-23T12:49:20;7.75;;;3.70;;
33094;SDS011;19459;53.044;8.910;2024-03-23T12:51:55;4.82;;;2.60;;
33094;SDS011;19459;53.044;8.910;2024-03-23T12:54:22;6.25;;;4.55;;
33094;SDS011;19459;53.044;8.910;2024-03-23T12:56:48;9.50;;;3.58;;
33094;SDS011;19459;53.044;8.910;2024-03-23T12:59:15;2.45;;;1.90;;
33094;SDS011;19459;53.044;8.910;2024-03-23T13:01:41;3.42;;;1.63;;
33094;SDS011;19459;53.044;8.910;2024-03-23T13:04:08;5.65;;;2.47;;
33094;SDS011;19459;53.044;8.910;2024-03-23T13:06:34;4.28;;;1.45;;
33094;SDS011;19459;53.044;8.910;2024-03-23T13:09:03;4.47;;;1.13;;
33094;SDS011;19459;53.044;8.910;2024-03-23T13:11:30;5.07;;;1.30;;
33094;SDS011;19459;53.044;8.910;2024-03-23T13:13:56;5.72;;;1.27;;
33094;SDS011;19459;53.044;8.910;2024-03-23T13:16:22;3.63;;;1.00;;
33094;SDS011;19459;53.044;8.910;2024-03-23T13:18:48;3.38;;;0.95;;
33094;SDS011;19459;53.044;8.910;2024-03-23T13:21:13;3.75;;;1.05;;
33094;SDS011;19459;53.044;8.910;2024-03-23T13:23:39;4.35;;;1.52;;
33094;SDS011;19459;53.044;8.910;2024-03-23T13:26:07;5.20;;;1.67;;
33094;SDS011;19459;53.044;8.910;2024-03-23T13:28:33;9.00;;;2.15;;
33094;SDS011;19459;53.044;8.910;2024-03-23T13:31:00;6.00;;;1.30;;
33094;SDS011;19459;53.044;8.910;2024-03-23T13:33:29;1.80;;;1.20;;
33094;SDS011;19459;53.044;8.910;2024-03-23T13:35:58;5.65;;;1.27;;
33094;SDS011;19459;53.044;8.910;2024-03-23T13:38:24;5.15;;;1.80;;
33094;SDS011;19459;53.044;8.910;2024-03-23T13:40:55;6.32;;;2.58;;
33094;SDS011;19459;53.044;8.910;2024-03-23T13:43:22;7.68;;;1.50;;
33094;SDS011;19459;53.044;8.910;2024-03-23T13:45:59;4.80;;;1.50;;
33094;SDS011;19459;53.044;8.910;2024-03-23T13:48:25;6.20;;;1.60;;
33094;SDS011;19459;53.044;8.910;2024-03-23T13:51:02;6.07;;;2.00;;
33094;SDS011;19459;53.044;8.910;2024-03-23T13:53:29;6.80;;;2.05;;
33094;SDS011;19459;53.044;8.910;2024-03-23T13:55:55;7.82;;;2.35;;
33094;SDS011;19459;53.044;8.910;2024-03-23T13:58:21;3.58;;;1.50;;
33094;SDS011;19459;53.044;8.910;2024-03-23T14:00:50;8.07;;;1.80;;
33094;SDS011;19459;53.044;8.910;2024-03-23T14:03:17;6.40;;;2.20;;
33094;SDS011;19459;53.044;8.910;2024-03-23T14:05:45;11.27;;;3.30;;
33094;SDS011;19459;53.044;8.910;2024-03-23T14:08:14;7.43;;;2.05;;
33094;SDS011;19459;53.044;8.910;2024-03-23T14:10:40;8.63;;;2.53;;
33094;SDS011;19459;53.044;8.910;2024-03-23T14:13:07;11.15;;;2.25;;
33094;SDS011;19459;53.044;8.910;2024-03-23T14:15:35;5.60;;;1.48;;
33094;SDS011;19459;53.044;8.910;2024-03-23T14:18:02;6.28;;;1.50;;
33094;SDS011;19459;53.044;8.910;2024-03-23T14:20:28;5.63;;;1.92;;
33094;SDS011;19459;53.044;8.910;2024-03-23T14:22:54;8.10;;;2.17;;
33094;SDS011;19459;53.044;8.910;2024-03-23T14:25:21;5.97;;;1.80;;
33094;SDS011;19459;53.044;8.910;2024-03-23T14:27:48;6.43;;;1.77;;
33094;SDS011;19459;53.044;8.910;2024-03-23T14:30:14;5.63;;;1.45;;
33094;SDS011;19459;53.044;8.910;2024-03-23T14:32:40;8.40;;;1.73;;
33094;SDS011;19459;53.044;8.910;2024-03-23T14:35:06;3.42;;;1.05;;
33094;SDS011;19459;53.044;8.910;2024-03-23T14:37:36;4.90;;;1.50;;
33094;SDS011;19459;53.044;8.910;2024-03-23T14:40:03;4.70;;;1.63;;
33094;SDS011;19459;53.044;8.910;2024-03-23T14:42:29;2.80;;;1.58;;
33094;SDS011;19459;53.044;8.910;2024-03-23T14:44:58;11.02;;;2.53;;
33094;SDS011;19459;53.044;8.910;2024-03-23T14:47:24;4.97;;;1.17;;
33094;SDS011;19459;53.044;8.910;2024-03-23T14:49:50;6.65;;;1.60;;
33094;SDS011;19459;53.044;8.910;2024-03-23T14:52:16;5.28;;;1.75;;
33094;SDS011;19459;53.044;8.910;2024-03-23T14:54:43;4.28;;;1.50;;
33094;SDS011;19459;53.044;8.910;2024-03-23T14:57:09;4.93;;;2.10;;
33094;SDS011;19459;53.044;8.910;2024-03-23T14:59:35;3.97;;;1.30;;
33094;SDS011;19459;53.044;8.910;2024-03-23T15:02:03;3.42;;;1.20;;
33094;SDS011;19459;53.044;8.910;2024-03-23T15:04:33;5.18;;;1.98;;
33094;SDS011;19459;53.044;8.910;2024-03-23T15:06:59;7.53;;;1.92;;
33094;SDS011;19459;53.044;8.910;2024-03-23T15:09:25;5.70;;;1.20;;
33094;SDS011;19459;53.044;8.910;2024-03-23T15:11:51;5.47;;;1.20;;
33094;SDS011;19459;53.044;8.910;2024-03-23T15:14:19;6.65;;;1.58;;
33094;SDS011;19459;53.044;8.910;2024-03-23T15:16:45;6.90;;;2.20;;
33094;SDS011;19459;53.044;8.910;2024-03-23T15:19:13;8.20;;;1.35;;
33094;SDS011;19459;53.044;8.910;2024-03-23T15:21:42;5.20;;;1.33;;
33094;SDS011;19459;53.044;8.910;2024-03-23T15:24:08;6.80;;;1.40;;
33094;SDS011;19459;53.044;8.910;2024-03-23T15:26:37;5.43;;;1.10;;
33094;SDS011;19459;53.044;8.910;2024-03-23T15:29:03;3.83;;;1.23;;
33094;SDS011;19459;53.044;8.910;2024-03-23T15:31:36;6.07;;;1.55;;
33094;SDS011;19459;53.044;8.910;2024-03-23T15:34:03;8.77;;;1.90;;
33094;SDS011;19459;53.044;8.910;2024-03-23T15:36:29;4.95;;;1.88;;
33094;SDS011;19459;53.044;8.910;2024-03-23T15:38:56;5.10;;;1.60;;
33094;SDS011;19459;53.044;8.910;2024-03-23T15:41:22;4.68;;;1.80;;
33094;SDS011;19459;53.044;8.910;2024-03-23T15:43:49;12.90;;;2.90;;